Time;durP1;ratioP1;P1;durP2;ratioP2;P2;SDS_P1;SDS_P2;PMS_P1;PMS_P2;Temp;Humidity;BMP_temperature;BMP_pressure;BME280_temperature;BME280_humidity;BME280_pressure;Samples;Min_cycle;Max_cycle;Signal;HPM_P1;HPM_P2
2023/11/07 04:07:01;;;;;;;0.40;0.40;;;8.80;99.90;;;;;;5027718;23;20230;-65
2023/11/07 04:09:27;;;;;;;0.40;0.40;;;8.80;99.90;;;;;;4973773;28;20265;-62
2023/11/07 04:11:53;;;;;;;0.63;0.63;;;8.80;99.90;;;;;;4971875;28;20706;-64
2023/11/07 04:14:18;;;;;;;0.30;0.30;;;8.90;99.90;;;;;;4976403;28;20718;-65
2023/11/07 04:16:44;;;;;;;0.30;0.30;;;8.90;99.90;;;;;;4956717;28;20189;-65
2023/11/07 04:19:11;;;;;;;0.30;0.30;;;9.00;99.90;;;;;;4937895;29;20180;-65
2023/11/07 04:21:37;;;;;;;0.30;0.30;;;9.00;99.90;;;;;;4955163;29;20559;-65
2023/11/07 04:24:05;;;;;;;0.30;0.30;;;9.00;99.90;;;;;;4954397;29;20207;-64
2023/11/07 04:26:31;;;;;;;0.43;0.43;;;9.10;99.90;;;;;;4954767;28;20279;-64
2023/11/07 04:28:57;;;;;;;0.40;0.40;;;9.10;99.90;;;;;;4954676;29;20208;-65
2023/11/07 04:31:23;;;;;;;0.50;0.50;;;9.10;99.90;;;;;;4937808;29;20173;-65
2023/11/07 04:33:49;;;;;;;0.30;0.30;;;9.10;99.90;;;;;;4933717;29;20695;-64
2023/11/07 04:36:16;;;;;;;0.30;0.30;;;9.10;99.90;;;;;;4947335;29;20444;-63
2023/11/07 04:38:43;;;;;;;0.35;0.35;;;8.90;99.90;;;;;;4955691;29;20196;-65
2023/11/07 04:41:09;;;;;;;0.35;0.35;;;8.90;99.90;;;;;;4954380;29;20206;-65
2023/11/07 04:43:35;;;;;;;0.30;0.30;;;8.80;99.90;;;;;;4954443;29;20279;-64
2023/11/07 04:46:05;;;;;;;0.40;0.40;;;8.70;99.90;;;;;;4954243;28;20320;-64
2023/11/07 04:48:32;;;;;;;0.30;0.30;;;8.70;99.90;;;;;;4954648;29;20404;-64
2023/11/07 04:50:59;;;;;;;0.30;0.30;;;8.60;99.90;;;;;;4954485;29;20184;-64
2023/11/07 04:53:25;;;;;;;0.30;0.30;;;8.50;99.90;;;;;;4954688;29;20177;-65
2023/11/07 04:55:50;;;;;;;0.40;0.40;;;8.50;99.90;;;;;;4954306;28;20529;-65
2023/11/07 04:58:16;;;;;;;0.40;0.40;;;8.40;99.90;;;;;;4954723;29;20184;-65
2023/11/07 05:00:42;;;;;;;0.40;0.40;;;8.30;99.90;;;;;;4954731;29;20660;-64
2023/11/07 05:03:08;;;;;;;0.30;0.30;;;8.30;99.90;;;;;;4954139;29;20501;-64
2023/11/07 05:05:34;;;;;;;0.30;0.30;;;8.20;99.90;;;;;;4953167;28;20204;-65
2023/11/07 05:07:59;;;;;;;0.30;0.30;;;8.10;99.90;;;;;;4954454;29;20180;-64
2023/11/07 05:10:25;;;;;;;0.40;0.40;;;8.10;99.90;;;;;;4954634;29;20203;-65
2023/11/07 05:12:51;;;;;;;0.50;0.50;;;8.10;99.90;;;;;;4956077;28;20184;-64
2023/11/07 05:15:17;;;;;;;0.30;0.30;;;8.00;99.90;;;;;;4957684;28;20196;-65
2023/11/07 05:17:42;;;;;;;0.40;0.40;;;8.00;99.90;;;;;;4957540;29;20188;-64
2023/11/07 05:20:10;;;;;;;0.30;0.30;;;8.00;99.90;;;;;;4957555;29;20556;-64
2023/11/07 05:22:36;;;;;;;0.30;0.30;;;7.90;99.90;;;;;;4958346;29;20188;-65
2023/11/07 05:25:05;;;;;;;0.40;0.40;;;7.90;99.90;;;;;;4957366;28;20199;-64
2023/11/07 05:27:31;;;;;;;0.40;0.40;;;7.80;99.90;;;;;;4957799;29;20177;-64
2023/11/07 05:29:57;;;;;;;0.50;0.50;;;7.80;99.90;;;;;;4957816;29;20760;-64
2023/11/07 05:32:23;;;;;;;0.37;0.37;;;7.70;99.90;;;;;;4957380;29;20260;-64
2023/11/07 05:34:48;;;;;;;0.30;0.30;;;7.60;99.90;;;;;;4956984;28;20192;-64
2023/11/07 05:37:17;;;;;;;0.43;0.43;;;7.50;99.90;;;;;;4940264;29;20224;-64
2023/11/07 05:39:44;;;;;;;0.40;0.40;;;7.50;99.90;;;;;;4957721;29;20208;-63
2023/11/07 05:42:10;;;;;;;0.52;0.52;;;7.50;99.90;;;;;;4940408;29;20644;-63
2023/11/07 05:44:36;;;;;;;0.40;0.40;;;7.50;99.90;;;;;;4957029;28;20572;-64
2023/11/07 05:47:03;;;;;;;0.40;0.40;;;7.50;99.90;;;;;;4957030;29;20168;-63
2023/11/07 05:49:28;;;;;;;0.50;0.50;;;7.50;99.90;;;;;;4938446;29;20184;-64
2023/11/07 05:51:54;;;;;;;0.30;0.30;;;7.50;99.90;;;;;;4938323;29;20633;-64
2023/11/07 05:54:19;;;;;;;0.40;0.40;;;7.40;99.90;;;;;;4937813;29;20510;-64
2023/11/07 05:56:45;;;;;;;0.40;0.40;;;7.30;99.90;;;;;;4955268;29;20207;-63
2023/11/07 05:59:10;;;;;;;0.40;0.40;;;7.30;99.90;;;;;;4957417;29;20208;-63
2023/11/07 06:01:36;;;;;;;0.40;0.40;;;7.40;99.90;;;;;;4957379;29;20567;-65
2023/11/07 06:04:04;;;;;;;0.30;0.30;;;7.30;99.90;;;;;;4955883;29;20212;-64
2023/11/07 06:06:29;;;;;;;0.40;0.40;;;7.30;99.90;;;;;;4953656;28;20209;-64
2023/11/07 06:08:55;;;;;;;0.40;0.40;;;7.30;99.90;;;;;;4956931;29;20719;-64
2023/11/07 06:11:21;;;;;;;0.40;0.40;;;7.20;99.90;;;;;;4955145;29;20192;-64
2023/11/07 06:13:46;;;;;;;0.30;0.30;;;7.20;99.90;;;;;;4946288;29;20193;-65
2023/11/07 06:16:12;;;;;;;0.30;0.30;;;7.20;99.90;;;;;;4937334;29;20267;-63
2023/11/07 06:18:39;;;;;;;0.30;0.30;;;7.10;99.90;;;;;;4946056;29;20220;-64
2023/11/07 06:21:05;;;;;;;0.30;0.30;;;7.00;99.90;;;;;;4956253;29;20176;-65
2023/11/07 06:23:30;;;;;;;0.30;0.30;;;6.90;99.90;;;;;;4956448;28;20203;-67
2023/11/07 06:25:56;;;;;;;0.40;0.40;;;6.90;99.90;;;;;;4956085;28;20201;-67
2023/11/07 06:28:22;;;;;;;0.30;0.30;;;6.90;99.90;;;;;;4956089;29;20172;-66
2023/11/07 06:30:48;;;;;;;0.40;0.40;;;6.80;99.90;;;;;;4956263;29;20252;-65
2023/11/07 06:33:14;;;;;;;0.30;0.30;;;6.90;99.90;;;;;;4956087;29;20184;-65
2023/11/07 06:35:42;;;;;;;0.32;0.32;;;6.90;99.90;;;;;;4955950;28;20203;-66
2023/11/07 06:38:08;;;;;;;0.30;0.30;;;6.90;99.90;;;;;;4956408;29;20570;-70
2023/11/07 06:40:34;;;;;;;0.30;0.30;;;7.00;99.90;;;;;;4962049;28;20267;-65
2023/11/07 06:43:00;;;;;;;0.30;0.30;;;7.00;99.90;;;;;;4962512;28;20462;-67
2023/11/07 06:45:25;;;;;;;0.50;0.50;;;7.10;99.90;;;;;;4965318;28;20449;-67
2023/11/07 06:47:51;;;;;;;0.30;0.30;;;7.20;99.90;;;;;;4966651;28;20183;-67
2023/11/07 06:50:17;;;;;;;0.30;0.30;;;7.30;99.90;;;;;;4955709;29;20645;-67
2023/11/07 06:52:48;;;;;;;0.30;0.30;;;7.40;99.90;;;;;;4960636;28;20168;-66
2023/11/07 06:55:14;;;;;;;0.30;0.30;;;7.40;99.90;;;;;;4973781;28;20238;-67
2023/11/07 06:57:41;;;;;;;0.40;0.40;;;7.50;99.90;;;;;;4974128;28;20168;-67
2023/11/07 07:00:08;;;;;;;0.30;0.30;;;7.70;99.90;;;;;;4974193;28;20215;-67
2023/11/07 07:02:39;;;;;;;0.30;0.30;;;7.90;99.90;;;;;;4954917;28;20176;-67
2023/11/07 07:05:04;;;;;;;0.30;0.30;;;8.10;99.90;;;;;;4954610;28;20243;-64
2023/11/07 07:07:31;;;;;;;0.30;0.30;;;8.30;99.90;;;;;;4955474;29;20192;-67
2023/11/07 07:09:58;;;;;;;0.35;0.35;;;8.50;99.90;;;;;;4955264;29;20947;-67
2023/11/07 07:12:24;;;;;;;0.40;0.40;;;8.60;99.90;;;;;;4955724;29;20169;-67
2023/11/07 07:14:49;;;;;;;0.30;0.30;;;8.70;99.90;;;;;;4955242;28;20173;-66
2023/11/07 07:17:19;;;;;;;0.30;0.30;;;8.80;99.90;;;;;;4955397;29;20428;-67
2023/11/07 07:19:45;;;;;;;0.30;0.30;;;8.90;99.90;;;;;;4955006;29;20181;-65
2023/11/07 07:22:11;;;;;;;0.30;0.30;;;9.00;99.90;;;;;;4955594;29;20183;-66
2023/11/07 07:24:38;;;;;;;0.30;0.30;;;9.20;99.90;;;;;;4955127;28;20673;-67
2023/11/07 07:27:04;;;;;;;0.30;0.30;;;9.30;99.90;;;;;;4955764;29;20534;-67
2023/11/07 07:29:29;;;;;;;0.30;0.30;;;9.60;99.90;;;;;;4955618;29;20179;-67
2023/11/07 07:31:57;;;;;;;0.30;0.30;;;10.00;99.90;;;;;;4955329;29;20170;-67
2023/11/07 07:34:23;;;;;;;0.30;0.30;;;10.50;99.90;;;;;;4954664;28;20641;-67
2023/11/07 07:36:50;;;;;;;0.30;0.30;;;11.20;99.90;;;;;;4955417;28;20427;-67
2023/11/07 07:39:28;;;;;;;0.30;0.30;;;11.70;99.90;;;;;;4955150;29;20172;-67
2023/11/07 07:41:58;;;;;;;0.30;0.30;;;12.30;99.90;;;;;;4955512;29;20835;-66
2023/11/07 07:44:27;;;;;;;0.30;0.20;;;12.90;99.90;;;;;;4954743;29;21008;-67
2023/11/07 07:46:54;;;;;;;0.30;0.30;;;13.20;99.90;;;;;;4954692;28;20430;-68
2023/11/07 07:49:23;;;;;;;0.30;0.30;;;13.40;99.90;;;;;;4954986;29;20455;-66
2023/11/07 07:51:58;;;;;;;0.30;0.30;;;13.50;99.90;;;;;;4955310;29;20415;-67
2023/11/07 07:54:24;;;;;;;0.30;0.30;;;13.60;99.90;;;;;;4954661;29;20415;-67
2023/11/07 07:56:54;;;;;;;0.30;0.30;;;13.70;99.90;;;;;;4955036;28;20431;-66
2023/11/07 07:59:23;;;;;;;0.50;0.40;;;13.50;99.90;;;;;;4937666;29;20444;-67
2023/11/07 08:01:57;;;;;;;0.30;0.20;;;13.30;99.90;;;;;;4937603;29;20923;-66
2023/11/07 08:04:25;;;;;;;0.30;0.30;;;13.30;99.90;;;;;;4954600;29;20459;-67
2023/11/07 08:06:53;;;;;;;0.30;0.30;;;13.30;99.90;;;;;;4954783;28;20461;-67
2023/11/07 08:09:19;;;;;;;0.40;0.40;;;13.20;99.90;;;;;;4954343;29;20416;-67
2023/11/07 08:11:48;;;;;;;0.40;0.40;;;13.10;99.90;;;;;;4935675;29;20430;-66
2023/11/07 08:14:16;;;;;;;0.47;0.47;;;13.10;99.90;;;;;;4935373;29;20432;-68
2023/11/07 08:16:43;;;;;;;0.30;0.30;;;13.00;99.90;;;;;;4935700;29;20503;-66
2023/11/07 08:19:09;;;;;;;0.30;0.30;;;12.90;99.90;;;;;;4934587;29;20439;-66
2023/11/07 08:21:36;;;;;;;0.30;0.30;;;12.80;99.90;;;;;;4935661;29;20409;-65
2023/11/07 08:24:03;;;;;;;0.30;0.20;;;12.60;99.90;;;;;;4939439;29;20473;-67
2023/11/07 08:26:28;;;;;;;0.30;0.30;;;12.50;99.90;;;;;;4954842;28;20428;-66
2023/11/07 08:28:54;;;;;;;0.37;0.37;;;12.40;99.90;;;;;;4954872;29;20390;-66
2023/11/07 08:31:22;;;;;;;0.30;0.20;;;12.30;99.90;;;;;;4954961;29;20176;-66
2023/11/07 08:33:49;;;;;;;0.30;0.30;;;12.30;99.90;;;;;;4954303;29;20180;-67
2023/11/07 08:36:17;;;;;;;0.30;0.30;;;12.40;99.90;;;;;;4954517;28;20454;-66
2023/11/07 08:38:45;;;;;;;0.30;0.20;;;12.40;99.90;;;;;;4954231;29;20416;-67
2023/11/07 08:41:14;;;;;;;0.30;0.30;;;12.40;99.90;;;;;;4937172;29;20443;-66
2023/11/07 08:43:39;;;;;;;0.30;0.30;;;12.40;99.90;;;;;;4954707;29;20430;-66
2023/11/07 08:46:05;;;;;;;0.30;0.20;;;12.50;99.90;;;;;;4954997;28;20503;-66
2023/11/07 08:48:31;;;;;;;0.30;0.30;;;12.40;99.90;;;;;;4958285;29;20252;-66
2023/11/07 08:50:57;;;;;;;0.30;0.30;;;12.40;99.90;;;;;;4958706;29;20499;-66
2023/11/07 08:53:22;;;;;;;0.30;0.30;;;12.50;99.90;;;;;;4958457;29;20235;-65
2023/11/07 08:55:50;;;;;;;0.30;0.30;;;12.40;99.90;;;;;;4957524;28;20695;-66
2023/11/07 08:58:16;;;;;;;0.30;0.30;;;12.30;99.90;;;;;;4958322;29;20179;-66
2023/11/07 09:00:44;;;;;;;0.30;0.30;;;12.20;99.90;;;;;;4957935;29;20407;-66
2023/11/07 09:03:10;;;;;;;0.80;0.60;;;12.20;99.90;;;;;;4958187;29;20434;-65
2023/11/07 09:05:36;;;;;;;0.30;0.30;;;12.00;99.90;;;;;;4957548;28;20551;-66
2023/11/07 09:08:04;;;;;;;0.30;0.30;;;12.00;99.90;;;;;;4958113;29;20396;-66
2023/11/07 09:10:31;;;;;;;0.30;0.30;;;12.00;99.90;;;;;;4958106;29;20458;-67
2023/11/07 09:12:57;;;;;;;0.30;0.30;;;12.10;99.90;;;;;;4958269;29;20416;-66
2023/11/07 09:15:25;;;;;;;0.30;0.30;;;12.20;99.90;;;;;;4957614;28;20436;-66
2023/11/07 09:17:51;;;;;;;2.30;0.73;;;12.30;99.90;;;;;;4958098;29;20180;-67
2023/11/07 09:20:18;;;;;;;0.30;0.30;;;12.40;99.90;;;;;;4957879;29;20444;-67
2023/11/07 09:22:44;;;;;;;0.30;0.27;;;12.40;99.90;;;;;;4958735;29;20412;-67
2023/11/07 09:25:11;;;;;;;0.30;0.30;;;12.60;99.90;;;;;;4957539;28;20801;-67
2023/11/07 09:27:37;;;;;;;0.30;0.30;;;12.70;99.90;;;;;;4957965;29;20783;-67
2023/11/07 09:30:11;;;;;;;0.30;0.30;;;12.70;99.90;;;;;;4957492;29;20544;-66
2023/11/07 09:32:41;;;;;;;0.30;0.20;;;12.60;99.90;;;;;;4957599;29;20576;-65
2023/11/07 09:35:07;;;;;;;0.30;0.20;;;12.60;99.90;;;;;;4939910;29;20522;-69
2023/11/07 09:37:39;;;;;;;0.30;0.20;;;12.60;99.90;;;;;;4940111;29;20422;-66
2023/11/07 09:40:09;;;;;;;0.30;0.30;;;12.60;99.90;;;;;;4957478;29;20424;-67
2023/11/07 09:42:35;;;;;;;0.30;0.30;;;12.70;99.90;;;;;;4940903;29;20749;-66
2023/11/07 09:45:09;;;;;;;0.30;0.20;;;12.60;99.90;;;;;;4957346;28;20588;-66
2023/11/07 09:47:35;;;;;;;0.30;0.30;;;12.70;99.90;;;;;;4957653;29;20583;-67
2023/11/07 09:50:04;;;;;;;0.30;0.30;;;12.70;99.90;;;;;;4957465;29;20428;-66
2023/11/07 09:52:32;;;;;;;0.30;0.30;;;12.80;99.90;;;;;;4939602;29;20408;-67
2023/11/07 09:54:59;;;;;;;0.30;0.30;;;12.80;99.90;;;;;;4956198;28;20812;-67
2023/11/07 09:57:27;;;;;;;0.30;0.30;;;12.80;99.90;;;;;;4956611;28;20742;-66
2023/11/07 09:59:57;;;;;;;0.30;0.30;;;12.90;99.90;;;;;;4956796;29;20409;-66
2023/11/07 10:02:23;;;;;;;0.30;0.30;;;13.00;99.90;;;;;;4957038;29;20420;-67
2023/11/07 10:04:50;;;;;;;0.30;0.30;;;13.20;99.90;;;;;;4957427;28;20463;-66
2023/11/07 10:07:16;;;;;;;0.30;0.30;;;13.50;99.90;;;;;;4956881;29;20184;-67
2023/11/07 10:09:41;;;;;;;0.30;0.30;;;13.90;99.90;;;;;;4956509;29;20504;-66
2023/11/07 10:12:15;;;;;;;0.30;0.30;;;14.20;99.90;;;;;;4956524;29;20167;-65
2023/11/07 10:14:41;;;;;;;0.30;0.30;;;14.60;99.90;;;;;;4956366;28;20211;-66
2023/11/07 10:17:07;;;;;;;0.30;0.30;;;14.70;99.90;;;;;;4956820;29;20423;-67
2023/11/07 10:19:34;;;;;;;0.30;0.30;;;14.80;99.90;;;;;;4956425;29;20942;-66
2023/11/07 10:22:06;;;;;;;0.30;0.20;;;14.70;99.70;;;;;;4939312;29;20423;-67
2023/11/07 10:24:45;;;;;;;0.30;0.30;;;14.70;99.40;;;;;;4956331;29;20458;-67
2023/11/07 10:27:11;;;;;;;0.30;0.30;;;14.50;99.30;;;;;;4956256;29;20486;-68
2023/11/07 10:29:51;;;;;;;0.30;0.30;;;14.40;99.70;;;;;;4956354;29;20549;-66
2023/11/07 10:32:17;;;;;;;0.30;0.30;;;14.10;99.80;;;;;;4956359;29;20413;-67
2023/11/07 10:34:43;;;;;;;0.30;0.30;;;13.90;99.90;;;;;;4955937;28;20401;-67
2023/11/07 10:37:09;;;;;;;0.30;0.30;;;13.80;99.90;;;;;;4939070;29;20925;-67
2023/11/07 10:39:35;;;;;;;0.30;0.30;;;13.80;99.90;;;;;;4956251;29;20184;-66
2023/11/07 10:42:19;;;;;;;0.30;0.30;;;13.70;99.90;;;;;;4955878;29;20424;-68
2023/11/07 10:44:48;;;;;;;0.30;0.30;;;13.70;99.90;;;;;;4955573;28;20459;-66
2023/11/07 10:47:14;;;;;;;0.30;0.30;;;13.60;99.90;;;;;;4956049;29;20404;-67
2023/11/07 10:49:44;;;;;;;0.30;0.30;;;13.50;99.90;;;;;;4938568;29;20423;-66
2023/11/07 10:52:10;;;;;;;0.30;0.30;;;13.50;99.90;;;;;;4955813;29;20740;-68
2023/11/07 10:54:36;;;;;;;0.30;0.30;;;13.40;99.90;;;;;;4955425;28;20408;-67
2023/11/07 10:57:05;;;;;;;0.30;0.20;;;13.30;99.90;;;;;;4955732;29;20252;-68
2023/11/07 10:59:32;;;;;;;0.40;0.40;;;13.30;99.90;;;;;;4956055;29;20173;-67
2023/11/07 11:02:01;;;;;;;0.40;0.40;;;13.30;99.90;;;;;;4956154;29;20416;-68
2023/11/07 11:04:36;;;;;;;0.30;0.30;;;13.40;99.90;;;;;;4955513;29;20482;-67
2023/11/07 11:07:04;;;;;;;0.30;0.30;;;13.50;99.90;;;;;;4955994;28;20780;-68
2023/11/07 11:09:33;;;;;;;0.30;0.30;;;13.60;99.90;;;;;;4955153;28;20413;-68
2023/11/07 11:12:01;;;;;;;0.30;0.30;;;13.60;99.90;;;;;;4955373;29;20508;-68
2023/11/07 11:14:27;;;;;;;0.30;0.30;;;13.60;99.90;;;;;;4955404;29;20404;-67
2023/11/07 11:17:01;;;;;;;0.30;0.30;;;13.60;99.90;;;;;;4955691;28;20432;-68
2023/11/07 11:19:50;;;;;;;0.30;0.30;;;13.50;99.90;;;;;;4955898;29;20195;-67
2023/11/07 11:22:34;;;;;;;0.30;0.20;;;13.40;99.90;;;;;;4955687;29;20495;-67
2023/11/07 11:25:05;;;;;;;0.40;0.40;;;13.10;99.90;;;;;;4955124;28;20459;-66
2023/11/07 11:27:36;;;;;;;0.30;0.30;;;12.90;99.90;;;;;;4955342;29;20934;-67
2023/11/07 11:30:05;;;;;;;0.30;0.30;;;12.60;99.90;;;;;;4954847;29;20404;-66
2023/11/07 11:32:34;;;;;;;0.30;0.30;;;12.30;99.90;;;;;;4955384;29;20404;-67
2023/11/07 11:35:19;;;;;;;0.30;0.30;;;12.10;99.90;;;;;;4955147;28;20438;-66
2023/11/07 11:38:11;;;;;;;0.30;0.30;;;11.90;99.90;;;;;;4938226;29;20423;-67
2023/11/07 11:40:50;;;;;;;0.30;0.30;;;11.70;99.90;;;;;;4955152;29;20412;-66
2023/11/07 11:43:22;;;;;;;0.30;0.30;;;11.50;99.90;;;;;;4955302;29;20471;-67
2023/11/07 11:45:52;;;;;;;0.30;0.30;;;11.50;99.90;;;;;;4954985;28;20431;-66
2023/11/07 11:48:19;;;;;;;0.30;0.30;;;11.50;99.90;;;;;;4938100;29;20431;-68
2023/11/07 11:51:07;;;;;;;0.30;0.30;;;11.50;99.90;;;;;;4955327;29;20501;-68
2023/11/07 11:53:33;;;;;;;0.30;0.30;;;11.50;99.90;;;;;;4955017;29;20947;-67
2023/11/07 11:55:59;;;;;;;0.30;0.30;;;11.50;99.90;;;;;;4954529;28;20506;-66
2023/11/07 11:58:31;;;;;;;0.43;0.43;;;11.50;99.90;;;;;;4955166;29;20386;-66
2023/11/07 12:01:00;;;;;;;0.30;0.20;;;11.50;99.90;;;;;;4955608;29;20235;-68
2023/11/07 12:03:36;;;;;;;0.30;0.30;;;11.50;99.90;;;;;;4954989;29;20454;-66
2023/11/07 12:06:04;;;;;;;0.30;0.30;;;11.50;99.90;;;;;;4954702;28;20458;-66
2023/11/07 12:08:43;;;;;;;0.30;0.30;;;11.60;99.90;;;;;;4955191;29;20481;-66
2023/11/07 12:11:10;;;;;;;0.30;0.30;;;11.70;99.90;;;;;;4954489;29;20459;-66
2023/11/07 12:13:36;;;;;;;0.30;0.30;;;11.70;99.90;;;;;;4955043;29;20407;-66
2023/11/07 12:16:19;;;;;;;0.30;0.30;;;11.80;99.90;;;;;;4953994;28;20855;-66
2023/11/07 12:18:47;;;;;;;0.30;0.30;;;11.90;99.90;;;;;;4955220;29;20405;-64
2023/11/07 12:21:28;;;;;;;0.40;0.40;;;12.00;99.90;;;;;;4955768;28;20412;-66
2023/11/07 12:23:57;;;;;;;0.30;0.30;;;12.10;99.90;;;;;;4958380;29;20456;-67
2023/11/07 12:26:38;;;;;;;0.30;0.30;;;12.20;99.90;;;;;;4957695;28;20446;-66
2023/11/07 12:29:06;;;;;;;0.30;0.30;;;12.30;99.90;;;;;;4958683;29;20427;-66
2023/11/07 12:31:38;;;;;;;0.30;0.30;;;12.40;99.90;;;;;;4958884;29;20896;-67
2023/11/07 12:34:04;;;;;;;0.40;0.40;;;12.60;99.90;;;;;;4958336;29;20536;-67
2023/11/07 12:36:31;;;;;;;0.30;0.30;;;12.60;99.90;;;;;;4958690;28;20414;-65
2023/11/07 12:38:56;;;;;;;0.30;0.27;;;12.60;99.90;;;;;;4958361;29;20408;-66
2023/11/07 12:41:22;;;;;;;0.30;0.30;;;12.60;99.90;;;;;;4958723;29;20431;-65
2023/11/07 12:43:48;;;;;;;0.30;0.30;;;12.70;99.90;;;;;;4958157;29;20208;-66
2023/11/07 12:46:16;;;;;;;0.30;0.30;;;12.80;99.90;;;;;;4958201;28;20507;-67
2023/11/07 12:48:44;;;;;;;0.37;0.37;;;13.00;99.90;;;;;;4958332;29;20173;-68
2023/11/07 12:51:11;;;;;;;0.30;0.30;;;13.10;99.90;;;;;;4940828;29;20424;-68
2023/11/07 12:53:47;;;;;;;0.30;0.30;;;13.30;99.90;;;;;;4958244;29;20494;-67
2023/11/07 12:56:15;;;;;;;0.30;0.30;;;13.40;99.90;;;;;;4957802;28;20443;-67
2023/11/07 12:58:41;;;;;;;0.30;0.30;;;13.50;99.90;;;;;;4958594;29;20464;-67
2023/11/07 13:01:07;;;;;;;0.30;0.20;;;13.50;99.90;;;;;;4957846;29;20428;-67
2023/11/07 13:03:33;;;;;;;0.30;0.30;;;13.60;99.90;;;;;;4958033;29;20205;-68
2023/11/07 13:06:10;;;;;;;0.30;0.30;;;13.60;99.90;;;;;;4957631;28;20479;-66
2023/11/07 13:08:44;;;;;;;0.30;0.30;;;13.60;99.90;;;;;;4958285;29;20408;-67
2023/11/07 13:11:12;;;;;;;0.30;0.30;;;13.60;99.90;;;;;;4957931;29;20426;-69
2023/11/07 13:13:38;;;;;;;0.30;0.30;;;13.60;99.90;;;;;;4957750;29;20758;-68
2023/11/07 13:16:06;;;;;;;0.30;0.30;;;13.60;99.90;;;;;;4957229;28;20426;-67
2023/11/07 13:18:31;;;;;;;0.30;0.30;;;13.50;99.90;;;;;;4958118;29;20408;-67
2023/11/07 13:20:57;;;;;;;0.30;0.30;;;13.40;99.90;;;;;;4957940;29;20852;-66
2023/11/07 13:23:23;;;;;;;0.57;0.57;;;13.40;99.90;;;;;;4957763;29;20617;-66
2023/11/07 13:25:48;;;;;;;0.30;0.30;;;13.20;99.90;;;;;;4957417;28;20220;-66
2023/11/07 13:28:14;;;;;;;0.30;0.30;;;13.10;99.90;;;;;;4957767;29;20173;-64
2023/11/07 13:30:42;;;;;;;0.50;0.50;;;13.00;99.90;;;;;;4956967;29;20706;-67
2023/11/07 13:33:07;;;;;;;0.30;0.27;;;12.90;99.90;;;;;;4956681;28;20179;-65
2023/11/07 13:35:37;;;;;;;0.30;0.30;;;12.80;99.90;;;;;;4957136;28;20482;-64
2023/11/07 13:38:03;;;;;;;0.30;0.30;;;12.70;99.90;;;;;;4957450;29;20171;-63
2023/11/07 13:40:29;;;;;;;0.30;0.30;;;12.70;99.90;;;;;;4957535;29;20416;-65
2023/11/07 13:42:55;;;;;;;0.30;0.30;;;12.60;99.90;;;;;;4957334;29;20445;-63
2023/11/07 13:45:21;;;;;;;0.30;0.20;;;12.60;99.90;;;;;;4956574;28;20492;-63
2023/11/07 13:47:46;;;;;;;0.30;0.20;;;12.60;99.90;;;;;;4957318;29;20172;-64
2023/11/07 13:50:12;;;;;;;0.37;0.37;;;12.60;99.90;;;;;;4957173;29;20358;-64
2023/11/07 13:52:40;;;;;;;0.30;0.30;;;12.50;99.90;;;;;;4957319;29;20175;-65
2023/11/07 13:55:06;;;;;;;0.30;0.30;;;12.40;99.90;;;;;;4956903;28;20467;-65
2023/11/07 13:57:32;;;;;;;0.30;0.30;;;12.40;99.90;;;;;;4940169;29;20423;-65
2023/11/07 13:59:58;;;;;;;0.30;0.20;;;12.30;99.90;;;;;;4957166;29;20428;-65
2023/11/07 14:02:25;;;;;;;0.30;0.30;;;12.30;99.90;;;;;;4956886;29;20644;-64
2023/11/07 14:04:50;;;;;;;0.30;0.30;;;12.20;99.90;;;;;;4955559;28;20511;-65
2023/11/07 14:07:17;;;;;;;0.30;0.30;;;12.20;99.90;;;;;;4956983;29;20490;-64
2023/11/07 14:09:43;;;;;;;0.30;0.30;;;12.10;99.90;;;;;;4957144;29;20167;-64
2023/11/07 14:12:09;;;;;;;0.30;0.30;;;12.10;99.90;;;;;;4957038;29;20958;-65
2023/11/07 14:14:34;;;;;;;0.30;0.30;;;12.10;99.90;;;;;;4956211;28;20450;-64
2023/11/07 14:17:00;;;;;;;0.30;0.30;;;12.10;99.90;;;;;;4957070;29;20875;-65
2023/11/07 14:19:28;;;;;;;0.30;0.30;;;12.10;99.90;;;;;;4956759;29;20266;-64
2023/11/07 14:21:53;;;;;;;0.30;0.30;;;12.00;99.90;;;;;;4956828;29;20407;-64
2023/11/07 14:24:19;;;;;;;0.30;0.30;;;12.00;99.90;;;;;;4956280;29;20456;-64
2023/11/07 14:26:45;;;;;;;0.30;0.30;;;12.00;99.90;;;;;;4956759;28;20193;-64
2023/11/07 14:29:11;;;;;;;0.30;0.30;;;11.90;99.90;;;;;;4956494;29;20460;-64
2023/11/07 14:31:37;;;;;;;0.30;0.30;;;11.80;99.90;;;;;;4939509;29;20512;-64
2023/11/07 14:34:03;;;;;;;0.30;0.30;;;11.80;99.90;;;;;;4956139;29;20183;-64
2023/11/07 14:36:29;;;;;;;0.30;0.30;;;11.70;99.90;;;;;;4956572;28;20188;-64
2023/11/07 14:38:54;;;;;;;0.30;0.30;;;11.80;99.90;;;;;;4956680;29;20503;-65
2023/11/07 14:41:21;;;;;;;0.30;0.30;;;11.70;99.90;;;;;;4956672;29;20210;-64
2023/11/07 14:43:47;;;;;;;0.30;0.30;;;11.70;99.90;;;;;;4955869;28;20255;-69
2023/11/07 14:46:15;;;;;;;0.50;0.43;;;11.60;99.90;;;;;;4956133;28;20429;-65
2023/11/07 14:48:41;;;;;;;0.40;0.40;;;11.60;99.90;;;;;;4956111;29;20427;-65
2023/11/07 14:51:07;;;;;;;0.30;0.30;;;11.60;99.90;;;;;;4956397;29;20838;-64
2023/11/07 14:53:33;;;;;;;0.30;0.30;;;11.60;99.90;;;;;;4956199;29;20176;-64
2023/11/07 14:55:58;;;;;;;0.30;0.20;;;11.60;99.90;;;;;;4955589;28;20277;-65
2023/11/07 14:58:24;;;;;;;0.40;0.40;;;11.60;99.90;;;;;;4956321;29;20492;-65
2023/11/07 15:00:51;;;;;;;0.30;0.30;;;11.50;99.90;;;;;;4955842;29;20210;-65
2023/11/07 15:03:19;;;;;;;0.30;0.30;;;11.50;99.90;;;;;;4956210;29;20196;-65
2023/11/07 15:05:48;;;;;;;0.30;0.30;;;11.50;99.90;;;;;;4955435;28;20441;-65
2023/11/07 15:08:14;;;;;;;0.30;0.30;;;11.50;99.90;;;;;;4956016;29;20653;-65
2023/11/07 15:10:40;;;;;;;0.30;0.30;;;11.40;99.90;;;;;;4955983;29;20400;-65
2023/11/07 15:13:06;;;;;;;0.30;0.30;;;11.40;99.90;;;;;;4955500;29;20431;-63
2023/11/07 15:15:32;;;;;;;0.30;0.30;;;11.30;99.90;;;;;;4955476;28;20272;-64
2023/11/07 15:18:00;;;;;;;0.30;0.30;;;11.30;99.90;;;;;;4938624;29;20459;-63
2023/11/07 15:20:30;;;;;;;0.30;0.30;;;11.20;99.90;;;;;;4955745;29;20896;-64
2023/11/07 15:22:55;;;;;;;0.30;0.30;;;11.20;99.90;;;;;;4955666;29;20189;-64
2023/11/07 15:25:22;;;;;;;0.30;0.20;;;11.10;99.90;;;;;;4955369;28;20432;-65
2023/11/07 15:27:48;;;;;;;0.30;0.30;;;11.10;99.90;;;;;;4955554;29;20169;-63
2023/11/07 15:30:16;;;;;;;0.30;0.30;;;11.00;99.90;;;;;;4938430;29;20251;-62
2023/11/07 15:32:48;;;;;;;0.30;0.30;;;11.00;99.90;;;;;;4955627;29;20548;-63
2023/11/07 15:35:14;;;;;;;0.30;0.30;;;10.90;99.90;;;;;;4955462;28;20197;-63
2023/11/07 15:37:48;;;;;;;0.30;0.30;;;10.90;99.90;;;;;;4955767;29;20174;-64
2023/11/07 15:40:15;;;;;;;0.30;0.30;;;10.80;99.90;;;;;;4955798;29;20179;-64
2023/11/07 15:42:42;;;;;;;0.60;0.60;;;10.70;99.90;;;;;;4955136;29;20345;-63
2023/11/07 15:45:09;;;;;;;0.30;0.28;;;10.60;99.90;;;;;;4955031;28;20732;-63
2023/11/07 15:47:40;;;;;;;0.30;0.30;;;10.60;99.90;;;;;;4955324;29;20202;-64
2023/11/07 15:50:15;;;;;;;0.30;0.30;;;10.50;99.90;;;;;;4955599;29;20165;-65
2023/11/07 15:52:47;;;;;;;0.50;0.50;;;10.40;99.90;;;;;;4955479;29;20505;-65
2023/11/07 15:55:13;;;;;;;0.30;0.20;;;10.40;99.90;;;;;;4954790;28;20193;-64
2023/11/07 15:57:40;;;;;;;0.30;0.30;;;10.30;99.90;;;;;;4954552;29;20177;-64
2023/11/07 16:00:10;;;;;;;0.30;0.30;;;10.30;99.90;;;;;;4955062;29;20193;-64
2023/11/07 16:02:41;;;;;;;0.30;0.30;;;10.20;99.90;;;;;;4955012;29;20177;-64
2023/11/07 16:05:11;;;;;;;0.40;0.40;;;10.20;99.90;;;;;;4954535;28;20255;-66
2023/11/07 16:07:38;;;;;;;0.35;0.35;;;10.20;99.90;;;;;;4955208;29;20228;-64
2023/11/07 16:10:06;;;;;;;0.30;0.30;;;10.10;99.90;;;;;;4955026;29;20242;-65
2023/11/07 16:12:33;;;;;;;0.30;0.30;;;10.10;99.90;;;;;;4954728;29;20530;-65
2023/11/07 16:14:58;;;;;;;0.40;0.40;;;10.20;99.90;;;;;;4953928;28;20190;-65
2023/11/07 16:17:24;;;;;;;0.50;0.50;;;10.20;99.90;;;;;;4954381;29;20184;-65
2023/11/07 16:19:49;;;;;;;0.30;0.30;;;10.20;99.90;;;;;;4953135;29;20180;-65
2023/11/07 16:22:16;;;;;;;0.30;0.30;;;10.20;99.90;;;;;;4954030;29;20181;-64
2023/11/07 16:24:42;;;;;;;0.30;0.30;;;10.30;99.90;;;;;;4953901;28;20255;-65
2023/11/07 16:27:08;;;;;;;0.30;0.30;;;10.30;99.90;;;;;;4954700;29;20184;-63
2023/11/07 16:29:35;;;;;;;0.30;0.30;;;10.30;99.90;;;;;;4955109;29;20180;-63
2023/11/07 16:32:01;;;;;;;0.30;0.30;;;10.30;99.90;;;;;;4954727;29;20231;-71
2023/11/07 16:34:28;;;;;;;0.40;0.40;;;10.30;99.90;;;;;;4953993;29;20181;-65
2023/11/07 16:36:54;;;;;;;0.30;0.30;;;10.40;99.90;;;;;;4937358;29;20774;-67
2023/11/07 16:39:19;;;;;;;0.37;0.37;;;10.30;99.90;;;;;;4954726;29;20283;-65
2023/11/07 16:41:45;;;;;;;0.30;0.30;;;10.30;99.90;;;;;;4954889;29;20284;-66
2023/11/07 16:44:11;;;;;;;0.40;0.40;;;10.20;99.90;;;;;;4953885;29;20873;-65
2023/11/07 16:46:36;;;;;;;0.30;0.30;;;10.20;99.90;;;;;;4954631;28;20197;-67
2023/11/07 16:49:03;;;;;;;0.30;0.30;;;10.10;99.90;;;;;;4954725;29;20239;-66
2023/11/07 16:51:32;;;;;;;0.30;0.30;;;10.00;99.90;;;;;;4954002;29;20675;-66
2023/11/07 16:53:58;;;;;;;0.30;0.30;;;9.90;99.90;;;;;;4936996;29;20633;-66
2023/11/07 16:56:25;;;;;;;0.30;0.30;;;9.80;99.90;;;;;;4954746;28;20188;-66
2023/11/07 16:58:50;;;;;;;0.40;0.40;;;9.70;99.90;;;;;;4954507;29;20213;-68